sensor_id;sensor_type;location;lat;lon;timestamp;P1;durP1;ratioP1;P2;durP2;ratioP2
18200;SDS011;9226;47.858;9.594;2022-11-09T00:02:16;4.67;;;1.93;;
18200;SDS011;9226;47.858;9.594;2022-11-09T00:04:42;3.07;;;1.90;;
18200;SDS011;9226;47.858;9.594;2022-11-09T00:07:07;4.57;;;2.50;;
18200;SDS011;9226;47.858;9.594;2022-11-09T00:09:33;4.17;;;1.70;;
18200;SDS011;9226;47.858;9.594;2022-11-09T00:11:58;4.67;;;1.90;;
18200;SDS011;9226;47.858;9.594;2022-11-09T00:14:28;3.53;;;1.83;;
18200;SDS011;9226;47.858;9.594;2022-11-09T00:16:54;5.10;;;2.00;;
18200;SDS011;9226;47.858;9.594;2022-11-09T00:19:20;3.77;;;1.87;;
18200;SDS011;9226;47.858;9.594;2022-11-09T00:21:46;2.70;;;1.70;;
18200;SDS011;9226;47.858;9.594;2022-11-09T00:24:11;3.07;;;1.87;;
18200;SDS011;9226;47.858;9.594;2022-11-09T00:26:37;4.37;;;1.90;;
18200;SDS011;9226;47.858;9.594;2022-11-09T00:29:02;6.57;;;1.97;;
18200;SDS011;9226;47.858;9.594;2022-11-09T00:31:28;2.80;;;1.63;;
18200;SDS011;9226;47.858;9.594;2022-11-09T00:33:54;3.27;;;1.53;;
18200;SDS011;9226;47.858;9.594;2022-11-09T00:36:21;2.63;;;1.80;;
18200;SDS011;9226;47.858;9.594;2022-11-09T00:38:51;4.43;;;2.10;;
18200;SDS011;9226;47.858;9.594;2022-11-09T00:41:18;3.10;;;1.90;;
18200;SDS011;9226;47.858;9.594;2022-11-09T00:43:45;2.33;;;1.50;;
18200;SDS011;9226;47.858;9.594;2022-11-09T00:46:10;2.23;;;1.50;;
18200;SDS011;9226;47.858;9.594;2022-11-09T00:48:36;3.60;;;1.80;;
18200;SDS011;9226;47.858;9.594;2022-11-09T00:51:02;3.07;;;1.87;;
18200;SDS011;9226;47.858;9.594;2022-11-09T00:53:29;3.40;;;2.13;;
18200;SDS011;9226;47.858;9.594;2022-11-09T00:55:56;2.87;;;1.67;;
18200;SDS011;9226;47.858;9.594;2022-11-09T00:58:26;3.90;;;1.73;;
18200;SDS011;9226;47.858;9.594;2022-11-09T01:00:53;6.03;;;1.57;;
18200;SDS011;9226;47.858;9.594;2022-11-09T01:03:20;2.70;;;1.53;;
18200;SDS011;9226;47.858;9.594;2022-11-09T01:05:46;2.60;;;1.57;;
18200;SDS011;9226;47.858;9.594;2022-11-09T01:08:12;4.07;;;1.80;;
18200;SDS011;9226;47.858;9.594;2022-11-09T01:10:39;5.80;;;1.90;;
18200;SDS011;9226;47.858;9.594;2022-11-09T01:13:08;3.80;;;2.00;;
18200;SDS011;9226;47.858;9.594;2022-11-09T01:15:45;2.70;;;1.80;;
18200;SDS011;9226;47.858;9.594;2022-11-09T01:18:13;4.57;;;1.70;;
18200;SDS011;9226;47.858;9.594;2022-11-09T01:20:40;3.33;;;1.67;;
18200;SDS011;9226;47.858;9.594;2022-11-09T01:23:07;2.60;;;1.70;;
18200;SDS011;9226;47.858;9.594;2022-11-09T01:25:34;2.77;;;1.70;;
18200;SDS011;9226;47.858;9.594;2022-11-09T01:28:00;4.50;;;1.67;;
18200;SDS011;9226;47.858;9.594;2022-11-09T01:30:26;4.00;;;1.83;;
18200;SDS011;9226;47.858;9.594;2022-11-09T01:32:52;6.87;;;1.90;;
18200;SDS011;9226;47.858;9.594;2022-11-09T01:35:17;3.93;;;1.60;;
18200;SDS011;9226;47.858;9.594;2022-11-09T01:37:43;3.33;;;1.73;;
18200;SDS011;9226;47.858;9.594;2022-11-09T01:40:09;2.77;;;1.67;;
18200;SDS011;9226;47.858;9.594;2022-11-09T01:42:36;2.60;;;1.50;;
18200;SDS011;9226;47.858;9.594;2022-11-09T01:45:17;3.53;;;1.70;;
18200;SDS011;9226;47.858;9.594;2022-11-09T01:47:44;5.20;;;1.70;;
18200;SDS011;9226;47.858;9.594;2022-11-09T01:50:28;3.43;;;1.80;;
18200;SDS011;9226;47.858;9.594;2022-11-09T01:53:01;3.20;;;1.80;;
18200;SDS011;9226;47.858;9.594;2022-11-09T01:55:29;4.33;;;2.10;;
18200;SDS011;9226;47.858;9.594;2022-11-09T01:57:57;5.90;;;2.50;;
18200;SDS011;9226;47.858;9.594;2022-11-09T02:00:27;4.47;;;2.30;;
18200;SDS011;9226;47.858;9.594;2022-11-09T02:02:56;5.00;;;2.63;;
18200;SDS011;9226;47.858;9.594;2022-11-09T02:05:26;3.93;;;1.77;;
18200;SDS011;9226;47.858;9.594;2022-11-09T02:07:55;4.33;;;2.10;;
18200;SDS011;9226;47.858;9.594;2022-11-09T02:10:36;86.60;;;27.70;;
18200;SDS011;9226;47.858;9.594;2022-11-09T02:13:07;9.70;;;3.80;;
18200;SDS011;9226;47.858;9.594;2022-11-09T02:15:36;9.37;;;4.13;;
18200;SDS011;9226;47.858;9.594;2022-11-09T02:18:02;6.37;;;2.70;;
18200;SDS011;9226;47.858;9.594;2022-11-09T02:20:28;4.43;;;2.27;;
18200;SDS011;9226;47.858;9.594;2022-11-09T02:22:54;3.63;;;2.07;;
18200;SDS011;9226;47.858;9.594;2022-11-09T02:25:19;2.60;;;1.67;;
18200;SDS011;9226;47.858;9.594;2022-11-09T02:27:45;2.73;;;1.80;;
18200;SDS011;9226;47.858;9.594;2022-11-09T02:30:11;3.30;;;1.60;;
18200;SDS011;9226;47.858;9.594;2022-11-09T02:32:38;2.83;;;1.90;;
18200;SDS011;9226;47.858;9.594;2022-11-09T02:35:03;3.13;;;1.80;;
18200;SDS011;9226;47.858;9.594;2022-11-09T02:40:29;2.37;;;1.50;;
18200;SDS011;9226;47.858;9.594;2022-11-09T02:43:00;3.27;;;1.67;;
18200;SDS011;9226;47.858;9.594;2022-11-09T02:45:26;2.40;;;1.60;;
18200;SDS011;9226;47.858;9.594;2022-11-09T02:47:52;3.13;;;1.50;;
18200;SDS011;9226;47.858;9.594;2022-11-09T02:50:17;2.83;;;1.80;;
18200;SDS011;9226;47.858;9.594;2022-11-09T02:52:43;6.60;;;2.80;;
18200;SDS011;9226;47.858;9.594;2022-11-09T02:55:08;5.00;;;2.40;;
18200;SDS011;9226;47.858;9.594;2022-11-09T02:57:34;4.77;;;2.80;;
18200;SDS011;9226;47.858;9.594;2022-11-09T03:00:00;4.60;;;2.23;;
18200;SDS011;9226;47.858;9.594;2022-11-09T03:02:25;2.77;;;1.90;;
18200;SDS011;9226;47.858;9.594;2022-11-09T03:04:51;4.57;;;2.10;;
18200;SDS011;9226;47.858;9.594;2022-11-09T03:07:16;3.60;;;2.00;;
18200;SDS011;9226;47.858;9.594;2022-11-09T03:09:42;2.70;;;1.60;;
18200;SDS011;9226;47.858;9.594;2022-11-09T03:12:07;2.30;;;1.60;;
18200;SDS011;9226;47.858;9.594;2022-11-09T03:15:08;4.97;;;2.37;;
18200;SDS011;9226;47.858;9.594;2022-11-09T03:17:34;7.23;;;2.07;;
18200;SDS011;9226;47.858;9.594;2022-11-09T03:19:59;5.63;;;2.13;;
18200;SDS011;9226;47.858;9.594;2022-11-09T03:22:25;3.00;;;1.70;;
18200;SDS011;9226;47.858;9.594;2022-11-09T03:24:51;4.37;;;1.77;;
18200;SDS011;9226;47.858;9.594;2022-11-09T03:27:17;3.27;;;1.90;;
18200;SDS011;9226;47.858;9.594;2022-11-09T03:29:42;3.40;;;1.90;;
18200;SDS011;9226;47.858;9.594;2022-11-09T03:32:27;4.97;;;1.87;;
18200;SDS011;9226;47.858;9.594;2022-11-09T03:34:53;4.07;;;2.00;;
18200;SDS011;9226;47.858;9.594;2022-11-09T03:37:18;6.97;;;1.97;;
18200;SDS011;9226;47.858;9.594;2022-11-09T03:39:44;3.57;;;2.00;;
18200;SDS011;9226;47.858;9.594;2022-11-09T03:42:09;2.80;;;1.63;;
18200;SDS011;9226;47.858;9.594;2022-11-09T03:44:35;2.87;;;1.60;;
18200;SDS011;9226;47.858;9.594;2022-11-09T03:47:00;9.00;;;2.20;;
18200;SDS011;9226;47.858;9.594;2022-11-09T03:49:26;2.20;;;1.60;;
18200;SDS011;9226;47.858;9.594;2022-11-09T03:51:51;4.73;;;2.20;;
18200;SDS011;9226;47.858;9.594;2022-11-09T03:54:17;3.87;;;2.30;;
18200;SDS011;9226;47.858;9.594;2022-11-09T03:56:42;3.87;;;2.17;;
18200;SDS011;9226;47.858;9.594;2022-11-09T03:59:07;3.50;;;2.20;;
18200;SDS011;9226;47.858;9.594;2022-11-09T04:01:33;3.03;;;1.97;;
18200;SDS011;9226;47.858;9.594;2022-11-09T04:03:58;4.27;;;2.17;;
18200;SDS011;9226;47.858;9.594;2022-11-09T04:06:24;3.83;;;2.10;;
18200;SDS011;9226;47.858;9.594;2022-11-09T04:08:49;3.40;;;2.07;;
18200;SDS011;9226;47.858;9.594;2022-11-09T04:11:15;4.10;;;2.03;;
18200;SDS011;9226;47.858;9.594;2022-11-09T04:13:40;5.90;;;3.03;;
18200;SDS011;9226;47.858;9.594;2022-11-09T04:16:06;3.37;;;2.00;;
18200;SDS011;9226;47.858;9.594;2022-11-09T04:18:32;3.90;;;2.00;;
18200;SDS011;9226;47.858;9.594;2022-11-09T04:20:57;8.50;;;2.07;;
18200;SDS011;9226;47.858;9.594;2022-11-09T04:23:23;3.70;;;1.93;;
18200;SDS011;9226;47.858;9.594;2022-11-09T04:25:49;5.57;;;2.20;;
18200;SDS011;9226;47.858;9.594;2022-11-09T04:28:14;4.03;;;2.40;;
18200;SDS011;9226;47.858;9.594;2022-11-09T04:30:40;4.17;;;2.23;;
18200;SDS011;9226;47.858;9.594;2022-11-09T04:33:07;4.13;;;2.23;;
18200;SDS011;9226;47.858;9.594;2022-11-09T04:35:33;3.80;;;2.23;;
18200;SDS011;9226;47.858;9.594;2022-11-09T04:38:02;4.13;;;1.80;;
18200;SDS011;9226;47.858;9.594;2022-11-09T04:40:30;5.93;;;2.00;;
18200;SDS011;9226;47.858;9.594;2022-11-09T04:43:03;4.53;;;2.40;;
18200;SDS011;9226;47.858;9.594;2022-11-09T04:45:31;5.10;;;1.83;;
18200;SDS011;9226;47.858;9.594;2022-11-09T04:47:58;4.73;;;2.20;;
18200;SDS011;9226;47.858;9.594;2022-11-09T04:50:28;4.57;;;2.43;;
18200;SDS011;9226;47.858;9.594;2022-11-09T04:52:54;3.37;;;2.30;;
18200;SDS011;9226;47.858;9.594;2022-11-09T04:55:28;6.57;;;2.70;;
18200;SDS011;9226;47.858;9.594;2022-11-09T04:57:54;5.57;;;2.73;;
18200;SDS011;9226;47.858;9.594;2022-11-09T05:00:19;5.73;;;3.20;;
18200;SDS011;9226;47.858;9.594;2022-11-09T05:02:44;6.67;;;3.13;;
18200;SDS011;9226;47.858;9.594;2022-11-09T05:05:10;6.63;;;3.23;;
18200;SDS011;9226;47.858;9.594;2022-11-09T05:07:35;4.97;;;3.20;;
18200;SDS011;9226;47.858;9.594;2022-11-09T05:10:01;6.17;;;3.53;;
18200;SDS011;9226;47.858;9.594;2022-11-09T05:12:26;6.10;;;3.50;;
18200;SDS011;9226;47.858;9.594;2022-11-09T05:14:52;8.17;;;3.80;;
18200;SDS011;9226;47.858;9.594;2022-11-09T05:17:17;6.83;;;4.37;;
18200;SDS011;9226;47.858;9.594;2022-11-09T05:19:43;6.93;;;3.17;;
18200;SDS011;9226;47.858;9.594;2022-11-09T05:22:08;5.70;;;3.13;;
18200;SDS011;9226;47.858;9.594;2022-11-09T05:24:52;6.93;;;2.70;;
18200;SDS011;9226;47.858;9.594;2022-11-09T05:27:17;5.40;;;3.10;;
18200;SDS011;9226;47.858;9.594;2022-11-09T05:29:46;7.60;;;2.67;;
18200;SDS011;9226;47.858;9.594;2022-11-09T05:32:11;3.83;;;2.80;;
18200;SDS011;9226;47.858;9.594;2022-11-09T05:34:37;6.43;;;3.00;;
18200;SDS011;9226;47.858;9.594;2022-11-09T05:37:02;7.87;;;3.43;;
18200;SDS011;9226;47.858;9.594;2022-11-09T05:39:28;7.30;;;3.20;;
18200;SDS011;9226;47.858;9.594;2022-11-09T05:41:53;4.90;;;3.40;;
18200;SDS011;9226;47.858;9.594;2022-11-09T05:44:18;6.80;;;3.57;;
18200;SDS011;9226;47.858;9.594;2022-11-09T05:46:44;6.57;;;3.50;;
18200;SDS011;9226;47.858;9.594;2022-11-09T05:49:09;6.30;;;3.40;;
18200;SDS011;9226;47.858;9.594;2022-11-09T05:51:35;6.33;;;3.80;;
18200;SDS011;9226;47.858;9.594;2022-11-09T05:54:00;8.10;;;3.80;;
18200;SDS011;9226;47.858;9.594;2022-11-09T05:56:25;8.20;;;3.87;;
18200;SDS011;9226;47.858;9.594;2022-11-09T05:58:51;7.47;;;4.10;;
18200;SDS011;9226;47.858;9.594;2022-11-09T06:01:16;7.93;;;4.10;;
18200;SDS011;9226;47.858;9.594;2022-11-09T06:03:45;7.83;;;4.03;;
18200;SDS011;9226;47.858;9.594;2022-11-09T06:06:11;8.77;;;3.93;;
18200;SDS011;9226;47.858;9.594;2022-11-09T06:08:38;7.63;;;3.80;;
18200;SDS011;9226;47.858;9.594;2022-11-09T06:11:05;5.90;;;3.53;;
18200;SDS011;9226;47.858;9.594;2022-11-09T06:13:32;10.97;;;3.77;;
18200;SDS011;9226;47.858;9.594;2022-11-09T06:15:59;8.00;;;3.70;;
18200;SDS011;9226;47.858;9.594;2022-11-09T06:18:26;8.80;;;3.60;;
18200;SDS011;9226;47.858;9.594;2022-11-09T06:20:53;8.13;;;3.73;;
18200;SDS011;9226;47.858;9.594;2022-11-09T06:23:20;7.47;;;3.77;;
18200;SDS011;9226;47.858;9.594;2022-11-09T06:26:00;7.27;;;4.37;;
18200;SDS011;9226;47.858;9.594;2022-11-09T06:28:27;7.97;;;3.73;;
18200;SDS011;9226;47.858;9.594;2022-11-09T06:30:56;8.17;;;3.80;;
18200;SDS011;9226;47.858;9.594;2022-11-09T06:33:22;11.23;;;4.50;;
18200;SDS011;9226;47.858;9.594;2022-11-09T06:35:48;6.63;;;3.70;;
18200;SDS011;9226;47.858;9.594;2022-11-09T06:38:13;8.60;;;4.13;;
18200;SDS011;9226;47.858;9.594;2022-11-09T06:40:39;7.10;;;4.17;;
18200;SDS011;9226;47.858;9.594;2022-11-09T06:43:04;8.53;;;4.20;;
18200;SDS011;9226;47.858;9.594;2022-11-09T06:45:30;9.67;;;4.50;;
18200;SDS011;9226;47.858;9.594;2022-11-09T06:47:56;8.43;;;4.40;;
18200;SDS011;9226;47.858;9.594;2022-11-09T06:50:23;11.93;;;3.80;;
18200;SDS011;9226;47.858;9.594;2022-11-09T06:52:49;7.70;;;4.00;;
18200;SDS011;9226;47.858;9.594;2022-11-09T06:55:14;7.47;;;4.30;;
18200;SDS011;9226;47.858;9.594;2022-11-09T06:57:39;8.53;;;4.13;;
18200;SDS011;9226;47.858;9.594;2022-11-09T07:00:05;7.50;;;4.23;;
18200;SDS011;9226;47.858;9.594;2022-11-09T07:02:31;9.73;;;4.70;;
18200;SDS011;9226;47.858;9.594;2022-11-09T07:04:57;8.50;;;4.73;;
18200;SDS011;9226;47.858;9.594;2022-11-09T07:07:22;8.73;;;4.47;;
18200;SDS011;9226;47.858;9.594;2022-11-09T07:09:48;8.73;;;4.27;;
18200;SDS011;9226;47.858;9.594;2022-11-09T07:12:13;9.13;;;4.23;;
18200;SDS011;9226;47.858;9.594;2022-11-09T07:14:39;8.03;;;4.33;;
18200;SDS011;9226;47.858;9.594;2022-11-09T07:17:04;9.93;;;4.13;;
18200;SDS011;9226;47.858;9.594;2022-11-09T07:19:30;7.87;;;4.03;;
18200;SDS011;9226;47.858;9.594;2022-11-09T07:21:55;8.87;;;4.77;;
18200;SDS011;9226;47.858;9.594;2022-11-09T07:24:22;8.27;;;4.63;;
18200;SDS011;9226;47.858;9.594;2022-11-09T07:26:48;8.93;;;4.47;;
18200;SDS011;9226;47.858;9.594;2022-11-09T07:29:14;8.00;;;4.40;;
18200;SDS011;9226;47.858;9.594;2022-11-09T07:31:40;10.93;;;4.97;;
18200;SDS011;9226;47.858;9.594;2022-11-09T07:34:05;11.37;;;5.17;;
18200;SDS011;9226;47.858;9.594;2022-11-09T07:36:31;9.77;;;5.27;;
18200;SDS011;9226;47.858;9.594;2022-11-09T07:38:57;7.67;;;4.30;;
18200;SDS011;9226;47.858;9.594;2022-11-09T07:41:23;13.07;;;5.20;;
18200;SDS011;9226;47.858;9.594;2022-11-09T07:43:49;9.33;;;5.30;;
18200;SDS011;9226;47.858;9.594;2022-11-09T07:46:15;9.40;;;5.20;;
18200;SDS011;9226;47.858;9.594;2022-11-09T07:48:40;10.70;;;5.47;;
18200;SDS011;9226;47.858;9.594;2022-11-09T07:51:06;12.10;;;5.20;;
18200;SDS011;9226;47.858;9.594;2022-11-09T07:53:32;10.67;;;5.60;;
18200;SDS011;9226;47.858;9.594;2022-11-09T07:55:58;10.03;;;5.23;;
18200;SDS011;9226;47.858;9.594;2022-11-09T07:58:26;16.50;;;5.07;;
18200;SDS011;9226;47.858;9.594;2022-11-09T08:00:52;7.97;;;5.07;;
18200;SDS011;9226;47.858;9.594;2022-11-09T08:03:18;11.33;;;4.80;;
18200;SDS011;9226;47.858;9.594;2022-11-09T08:05:46;9.10;;;4.77;;
18200;SDS011;9226;47.858;9.594;2022-11-09T08:08:12;12.73;;;6.53;;
18200;SDS011;9226;47.858;9.594;2022-11-09T08:10:40;10.03;;;5.90;;
18200;SDS011;9226;47.858;9.594;2022-11-09T08:13:08;9.77;;;4.93;;
18200;SDS011;9226;47.858;9.594;2022-11-09T08:15:36;9.17;;;5.20;;
18200;SDS011;9226;47.858;9.594;2022-11-09T08:18:18;13.93;;;7.10;;
18200;SDS011;9226;47.858;9.594;2022-11-09T08:20:45;12.83;;;6.07;;
18200;SDS011;9226;47.858;9.594;2022-11-09T08:23:14;10.43;;;5.77;;
18200;SDS011;9226;47.858;9.594;2022-11-09T08:25:41;13.07;;;5.73;;
18200;SDS011;9226;47.858;9.594;2022-11-09T08:28:06;8.97;;;5.47;;
18200;SDS011;9226;47.858;9.594;2022-11-09T08:30:32;11.70;;;5.83;;
18200;SDS011;9226;47.858;9.594;2022-11-09T08:32:59;10.90;;;5.80;;
18200;SDS011;9226;47.858;9.594;2022-11-09T08:35:25;11.57;;;5.63;;
18200;SDS011;9226;47.858;9.594;2022-11-09T08:37:52;11.27;;;5.90;;
18200;SDS011;9226;47.858;9.594;2022-11-09T08:40:19;10.77;;;5.03;;
18200;SDS011;9226;47.858;9.594;2022-11-09T08:42:46;13.67;;;5.77;;
18200;SDS011;9226;47.858;9.594;2022-11-09T08:45:11;13.47;;;6.67;;
18200;SDS011;9226;47.858;9.594;2022-11-09T08:47:38;13.33;;;6.87;;
18200;SDS011;9226;47.858;9.594;2022-11-09T08:50:04;10.07;;;5.63;;
18200;SDS011;9226;47.858;9.594;2022-11-09T08:52:30;13.53;;;6.20;;
18200;SDS011;9226;47.858;9.594;2022-11-09T08:54:56;10.40;;;5.57;;
18200;SDS011;9226;47.858;9.594;2022-11-09T08:57:22;12.13;;;6.43;;
18200;SDS011;9226;47.858;9.594;2022-11-09T08:59:48;11.20;;;6.50;;
18200;SDS011;9226;47.858;9.594;2022-11-09T09:02:13;17.43;;;7.20;;
18200;SDS011;9226;47.858;9.594;2022-11-09T09:04:39;11.27;;;7.00;;
18200;SDS011;9226;47.858;9.594;2022-11-09T09:07:05;10.27;;;6.57;;
18200;SDS011;9226;47.858;9.594;2022-11-09T09:09:31;12.87;;;6.83;;
18200;SDS011;9226;47.858;9.594;2022-11-09T09:11:58;12.73;;;6.73;;
18200;SDS011;9226;47.858;9.594;2022-11-09T09:14:24;17.10;;;7.33;;
18200;SDS011;9226;47.858;9.594;2022-11-09T09:16:49;15.37;;;7.43;;
18200;SDS011;9226;47.858;9.594;2022-11-09T09:19:15;13.87;;;7.50;;
18200;SDS011;9226;47.858;9.594;2022-11-09T09:21:41;19.63;;;6.67;;
18200;SDS011;9226;47.858;9.594;2022-11-09T09:24:06;13.33;;;6.83;;
18200;SDS011;9226;47.858;9.594;2022-11-09T09:26:32;12.73;;;6.30;;
18200;SDS011;9226;47.858;9.594;2022-11-09T09:28:58;15.53;;;8.33;;
18200;SDS011;9226;47.858;9.594;2022-11-09T09:31:23;13.03;;;7.20;;
18200;SDS011;9226;47.858;9.594;2022-11-09T09:33:49;16.60;;;7.37;;
18200;SDS011;9226;47.858;9.594;2022-11-09T09:36:15;15.37;;;7.13;;
18200;SDS011;9226;47.858;9.594;2022-11-09T09:38:42;14.23;;;6.93;;
18200;SDS011;9226;47.858;9.594;2022-11-09T09:41:07;12.23;;;5.93;;
18200;SDS011;9226;47.858;9.594;2022-11-09T09:43:46;12.57;;;6.10;;
18200;SDS011;9226;47.858;9.594;2022-11-09T09:49:00;12.53;;;6.57;;
18200;SDS011;9226;47.858;9.594;2022-11-09T09:54:06;14.73;;;6.47;;
18200;SDS011;9226;47.858;9.594;2022-11-09T09:56:39;8.87;;;5.47;;
18200;SDS011;9226;47.858;9.594;2022-11-09T10:01:36;12.43;;;5.87;;
18200;SDS011;9226;47.858;9.594;2022-11-09T10:04:17;11.50;;;5.87;;
18200;SDS011;9226;47.858;9.594;2022-11-09T10:06:57;9.27;;;5.73;;
18200;SDS011;9226;47.858;9.594;2022-11-09T10:10:28;8.70;;;5.40;;
18200;SDS011;9226;47.858;9.594;2022-11-09T10:18:14;10.43;;;6.07;;
18200;SDS011;9226;47.858;9.594;2022-11-09T10:26:02;12.73;;;6.13;;
18200;SDS011;9226;47.858;9.594;2022-11-09T10:28:32;11.10;;;5.87;;
18200;SDS011;9226;47.858;9.594;2022-11-09T10:31:04;8.97;;;4.97;;
18200;SDS011;9226;47.858;9.594;2022-11-09T10:33:39;8.50;;;4.60;;
18200;SDS011;9226;47.858;9.594;2022-11-09T10:36:10;12.00;;;5.30;;
18200;SDS011;9226;47.858;9.594;2022-11-09T10:38:48;10.70;;;5.07;;
18200;SDS011;9226;47.858;9.594;2022-11-09T10:43:55;9.20;;;5.23;;
18200;SDS011;9226;47.858;9.594;2022-11-09T10:46:21;9.37;;;4.50;;
18200;SDS011;9226;47.858;9.594;2022-11-09T10:48:46;9.50;;;5.10;;
18200;SDS011;9226;47.858;9.594;2022-11-09T10:54:17;7.30;;;4.83;;
18200;SDS011;9226;47.858;9.594;2022-11-09T10:56:44;12.70;;;4.70;;
18200;SDS011;9226;47.858;9.594;2022-11-09T11:00:13;8.53;;;4.50;;
18200;SDS011;9226;47.858;9.594;2022-11-09T11:04:49;7.70;;;4.40;;
18200;SDS011;9226;47.858;9.594;2022-11-09T11:07:27;6.60;;;4.40;;
18200;SDS011;9226;47.858;9.594;2022-11-09T11:09:52;12.67;;;4.70;;
18200;SDS011;9226;47.858;9.594;2022-11-09T11:12:18;11.03;;;5.50;;
18200;SDS011;9226;47.858;9.594;2022-11-09T11:14:46;10.17;;;5.57;;
18200;SDS011;9226;47.858;9.594;2022-11-09T11:17:25;13.87;;;6.17;;
18200;SDS011;9226;47.858;9.594;2022-11-09T11:19:53;9.60;;;4.93;;
18200;SDS011;9226;47.858;9.594;2022-11-09T11:22:19;8.40;;;4.77;;
18200;SDS011;9226;47.858;9.594;2022-11-09T11:25:16;11.37;;;5.00;;
18200;SDS011;9226;47.858;9.594;2022-11-09T11:27:49;8.80;;;4.90;;
18200;SDS011;9226;47.858;9.594;2022-11-09T11:30:20;9.33;;;4.90;;
18200;SDS011;9226;47.858;9.594;2022-11-09T11:32:56;12.10;;;4.40;;
18200;SDS011;9226;47.858;9.594;2022-11-09T11:35:27;4.53;;;3.20;;
18200;SDS011;9226;47.858;9.594;2022-11-09T11:43:53;4.07;;;2.60;;
18200;SDS011;9226;47.858;9.594;2022-11-09T12:11:04;4.80;;;2.10;;
18200;SDS011;9226;47.858;9.594;2022-11-09T12:14:14;8.80;;;2.40;;
18200;SDS011;9226;47.858;9.594;2022-11-09T12:17:38;3.03;;;2.00;;
18200;SDS011;9226;47.858;9.594;2022-11-09T12:28:47;3.07;;;1.73;;
18200;SDS011;9226;47.858;9.594;2022-11-09T12:39:40;2.43;;;1.90;;
18200;SDS011;9226;47.858;9.594;2022-11-09T12:42:16;4.17;;;2.10;;
18200;SDS011;9226;47.858;9.594;2022-11-09T12:44:59;4.83;;;1.97;;
18200;SDS011;9226;47.858;9.594;2022-11-09T12:47:49;2.80;;;1.80;;
18200;SDS011;9226;47.858;9.594;2022-11-09T12:50:19;3.40;;;1.73;;
18200;SDS011;9226;47.858;9.594;2022-11-09T12:52:48;3.10;;;1.80;;
18200;SDS011;9226;47.858;9.594;2022-11-09T12:55:22;3.20;;;1.83;;
18200;SDS011;9226;47.858;9.594;2022-11-09T12:57:56;4.23;;;1.90;;
18200;SDS011;9226;47.858;9.594;2022-11-09T13:02:58;6.80;;;1.97;;
18200;SDS011;9226;47.858;9.594;2022-11-09T13:05:33;3.97;;;1.90;;
18200;SDS011;9226;47.858;9.594;2022-11-09T13:08:04;5.60;;;2.10;;
18200;SDS011;9226;47.858;9.594;2022-11-09T13:10:38;2.10;;;1.60;;
18200;SDS011;9226;47.858;9.594;2022-11-09T13:15:35;2.60;;;1.83;;
18200;SDS011;9226;47.858;9.594;2022-11-09T13:20:56;2.67;;;1.80;;
18200;SDS011;9226;47.858;9.594;2022-11-09T13:23:41;4.03;;;1.90;;
18200;SDS011;9226;47.858;9.594;2022-11-09T13:26:56;2.77;;;1.70;;
18200;SDS011;9226;47.858;9.594;2022-11-09T13:34:55;4.73;;;1.70;;
18200;SDS011;9226;47.858;9.594;2022-11-09T13:45:36;3.87;;;2.20;;
18200;SDS011;9226;47.858;9.594;2022-11-09T13:48:19;3.13;;;1.50;;
18200;SDS011;9226;47.858;9.594;2022-11-09T13:50:55;4.93;;;1.90;;
18200;SDS011;9226;47.858;9.594;2022-11-09T13:55:54;6.73;;;2.33;;
18200;SDS011;9226;47.858;9.594;2022-11-09T13:58:28;6.00;;;2.47;;
18200;SDS011;9226;47.858;9.594;2022-11-09T14:00:59;5.10;;;2.23;;
18200;SDS011;9226;47.858;9.594;2022-11-09T14:03:25;3.13;;;2.10;;
18200;SDS011;9226;47.858;9.594;2022-11-09T14:05:54;4.93;;;2.33;;
18200;SDS011;9226;47.858;9.594;2022-11-09T14:17:07;3.53;;;2.13;;
18200;SDS011;9226;47.858;9.594;2022-11-09T14:22:17;3.30;;;1.90;;
18200;SDS011;9226;47.858;9.594;2022-11-09T14:24:43;3.20;;;1.90;;
18200;SDS011;9226;47.858;9.594;2022-11-09T14:29:54;5.30;;;2.33;;
18200;SDS011;9226;47.858;9.594;2022-11-09T14:32:28;7.63;;;4.03;;
18200;SDS011;9226;47.858;9.594;2022-11-09T14:37:55;4.57;;;2.67;;
18200;SDS011;9226;47.858;9.594;2022-11-09T14:40:23;3.63;;;2.50;;
18200;SDS011;9226;47.858;9.594;2022-11-09T14:42:55;4.27;;;2.67;;
18200;SDS011;9226;47.858;9.594;2022-11-09T14:45:25;4.77;;;3.20;;
18200;SDS011;9226;47.858;9.594;2022-11-09T14:47:53;5.67;;;2.73;;
18200;SDS011;9226;47.858;9.594;2022-11-09T14:50:32;8.07;;;3.00;;
18200;SDS011;9226;47.858;9.594;2022-11-09T14:53:01;6.40;;;3.77;;
18200;SDS011;9226;47.858;9.594;2022-11-09T14:55:27;10.30;;;4.40;;
18200;SDS011;9226;47.858;9.594;2022-11-09T14:57:54;8.27;;;3.90;;
18200;SDS011;9226;47.858;9.594;2022-11-09T15:00:31;12.67;;;6.27;;
18200;SDS011;9226;47.858;9.594;2022-11-09T15:02:59;13.43;;;7.10;;
18200;SDS011;9226;47.858;9.594;2022-11-09T15:05:44;11.70;;;6.27;;
18200;SDS011;9226;47.858;9.594;2022-11-09T15:08:14;18.13;;;9.10;;
18200;SDS011;9226;47.858;9.594;2022-11-09T15:10:50;16.63;;;7.73;;
18200;SDS011;9226;47.858;9.594;2022-11-09T15:13:18;13.80;;;6.30;;
18200;SDS011;9226;47.858;9.594;2022-11-09T15:15:52;9.00;;;4.20;;
18200;SDS011;9226;47.858;9.594;2022-11-09T15:18:20;6.60;;;3.93;;
18200;SDS011;9226;47.858;9.594;2022-11-09T15:21:08;8.03;;;3.63;;
18200;SDS011;9226;47.858;9.594;2022-11-09T15:23:41;4.47;;;2.77;;
18200;SDS011;9226;47.858;9.594;2022-11-09T15:26:25;3.77;;;2.47;;
18200;SDS011;9226;47.858;9.594;2022-11-09T15:28:53;5.47;;;3.00;;
18200;SDS011;9226;47.858;9.594;2022-11-09T15:31:19;5.47;;;3.07;;
18200;SDS011;9226;47.858;9.594;2022-11-09T15:33:56;6.90;;;2.77;;
18200;SDS011;9226;47.858;9.594;2022-11-09T15:36:29;6.17;;;3.23;;
18200;SDS011;9226;47.858;9.594;2022-11-09T15:39:02;4.47;;;3.00;;
18200;SDS011;9226;47.858;9.594;2022-11-09T15:41:47;5.83;;;3.30;;
18200;SDS011;9226;47.858;9.594;2022-11-09T15:44:12;7.30;;;3.40;;
18200;SDS011;9226;47.858;9.594;2022-11-09T15:46:45;6.80;;;3.73;;
18200;SDS011;9226;47.858;9.594;2022-11-09T15:49:15;12.00;;;5.47;;
18200;SDS011;9226;47.858;9.594;2022-11-09T15:51:41;11.60;;;4.67;;
18200;SDS011;9226;47.858;9.594;2022-11-09T15:54:07;9.20;;;4.87;;
18200;SDS011;9226;47.858;9.594;2022-11-09T15:56:33;7.90;;;4.33;;
18200;SDS011;9226;47.858;9.594;2022-11-09T15:58:58;18.60;;;4.67;;
18200;SDS011;9226;47.858;9.594;2022-11-09T16:01:24;10.33;;;4.40;;
18200;SDS011;9226;47.858;9.594;2022-11-09T16:03:49;6.73;;;3.67;;
18200;SDS011;9226;47.858;9.594;2022-11-09T16:06:16;11.17;;;4.20;;
18200;SDS011;9226;47.858;9.594;2022-11-09T16:08:46;22.70;;;9.93;;
18200;SDS011;9226;47.858;9.594;2022-11-09T16:11:12;16.47;;;9.20;;
18200;SDS011;9226;47.858;9.594;2022-11-09T16:13:38;13.37;;;7.80;;
18200;SDS011;9226;47.858;9.594;2022-11-09T16:16:04;15.57;;;7.03;;
18200;SDS011;9226;47.858;9.594;2022-11-09T16:18:31;8.27;;;4.37;;
18200;SDS011;9226;47.858;9.594;2022-11-09T16:20:57;7.47;;;4.20;;
18200;SDS011;9226;47.858;9.594;2022-11-09T16:23:24;15.63;;;8.37;;
18200;SDS011;9226;47.858;9.594;2022-11-09T16:25:49;8.87;;;5.23;;
18200;SDS011;9226;47.858;9.594;2022-11-09T16:28:15;12.40;;;4.70;;
18200;SDS011;9226;47.858;9.594;2022-11-09T16:30:42;8.20;;;4.50;;
18200;SDS011;9226;47.858;9.594;2022-11-09T16:33:08;12.43;;;5.10;;
18200;SDS011;9226;47.858;9.594;2022-11-09T16:35:33;11.17;;;4.70;;
18200;SDS011;9226;47.858;9.594;2022-11-09T16:37:59;9.90;;;5.17;;
18200;SDS011;9226;47.858;9.594;2022-11-09T16:40:27;9.33;;;5.00;;
18200;SDS011;9226;47.858;9.594;2022-11-09T16:42:53;9.90;;;5.53;;
18200;SDS011;9226;47.858;9.594;2022-11-09T16:45:19;10.67;;;5.47;;
18200;SDS011;9226;47.858;9.594;2022-11-09T16:47:46;12.33;;;5.47;;
18200;SDS011;9226;47.858;9.594;2022-11-09T16:50:14;12.63;;;5.70;;
18200;SDS011;9226;47.858;9.594;2022-11-09T16:52:40;12.40;;;6.77;;
18200;SDS011;9226;47.858;9.594;2022-11-09T16:55:05;10.23;;;6.00;;
18200;SDS011;9226;47.858;9.594;2022-11-09T16:57:33;14.03;;;5.77;;
18200;SDS011;9226;47.858;9.594;2022-11-09T16:59:59;11.80;;;5.90;;
18200;SDS011;9226;47.858;9.594;2022-11-09T17:02:25;11.73;;;5.47;;
18200;SDS011;9226;47.858;9.594;2022-11-09T17:04:51;15.00;;;6.00;;
18200;SDS011;9226;47.858;9.594;2022-11-09T17:07:17;12.80;;;5.97;;